createdAt,value
2023-01-04T00:02:58.416Z,68.85
2023-01-04T00:07:57.215Z,70.28
2023-01-04T00:12:57.335Z,67.93
2023-01-04T00:17:56.136Z,58.03
2023-01-04T00:22:54.963Z,63.92
2023-01-04T00:27:54.099Z,72.90
2023-01-04T00:32:54.254Z,64.80
2023-01-04T00:37:53.297Z,55.50
2023-01-04T00:42:52.045Z,57.80
2023-01-04T00:47:50.809Z,57.65
2023-01-04T00:52:52.343Z,58.67
2023-01-04T00:57:51.148Z,31.27
2023-01-04T01:02:50.169Z,28.30
2023-01-04T01:07:49.157Z,29.90
2023-01-04T01:12:49.524Z,31.23
2023-01-04T01:17:48.238Z,30.38
2023-01-04T01:22:47.038Z,35.70
2023-01-04T01:27:45.862Z,35.78
2023-01-04T01:32:46.031Z,29.83
2023-01-04T01:37:44.815Z,29.23
2023-01-04T01:42:43.676Z,43.15
2023-01-04T01:47:46.468Z,35.20
2023-01-04T01:52:45.215Z,38.03
2023-01-04T01:57:45.617Z,44.13
2023-01-04T02:02:50.986Z,42.95
2023-01-04T02:07:51.524Z,39.70
2023-01-04T02:12:51.885Z,42.55
2023-01-04T02:18:01.739Z,41.72
2023-01-04T02:23:55.447Z,44.47
2023-01-04T02:29:21.354Z,45.95
2023-01-04T02:34:29.471Z,44.45
2023-01-04T02:39:38.493Z,50.47
2023-01-04T02:44:57.411Z,47.00
2023-01-04T02:50:23.747Z,45.17
2023-01-04T02:55:22.919Z,42.60
2023-01-04T03:00:33.625Z,41.50
2023-01-04T03:06:01.022Z,38.53
2023-01-04T03:11:04.030Z,40.33
2023-01-04T03:16:08.177Z,43.00
2023-01-04T03:21:10.501Z,42.17
2023-01-04T03:26:29.240Z,40.40
2023-01-04T03:31:53.730Z,38.60
2023-01-04T03:37:11.701Z,37.00
2023-01-04T03:42:35.856Z,38.65
2023-01-04T03:47:58.763Z,44.22
2023-01-04T03:53:00.423Z,39.53
2023-01-04T03:58:00.526Z,39.13
2023-01-04T04:03:07.431Z,41.78
2023-01-04T04:08:26.868Z,42.08
2023-01-04T04:13:26.740Z,44.10
2023-01-04T04:18:25.536Z,38.30
2023-01-04T04:23:25.638Z,38.85
2023-01-04T04:28:24.413Z,35.70
2023-01-04T04:33:23.300Z,34.20
2023-01-04T04:38:23.128Z,34.33
2023-01-04T04:43:23.209Z,25.40
2023-01-04T04:48:21.972Z,28.90
2023-01-04T04:53:20.776Z,27.73
2023-01-04T04:58:19.885Z,28.27
2023-01-04T05:03:20.192Z,31.77
2023-01-04T05:08:19.010Z,29.92
2023-01-04T05:13:17.848Z,30.90
2023-01-04T05:18:18.380Z,34.85
2023-01-04T05:23:20.578Z,32.00
2023-01-04T05:28:19.383Z,28.23
2023-01-04T05:33:18.757Z,32.83
2023-01-04T05:38:19.201Z,37.85
2023-01-04T05:43:18.652Z,33.53
2023-01-04T05:48:17.874Z,33.75
2023-01-04T05:53:19.043Z,57.25
2023-01-04T05:58:17.902Z,46.85
2023-01-04T06:03:18.993Z,51.45
2023-01-04T06:08:19.994Z,44.35
2023-01-04T06:13:18.709Z,47.92
2023-01-04T06:18:17.372Z,48.58
2023-01-04T06:23:16.193Z,46.90
2023-01-04T06:28:16.369Z,50.88
2023-01-04T06:33:15.199Z,59.38
2023-01-04T06:38:13.967Z,60.70
2023-01-04T06:43:12.809Z,74.00
2023-01-04T06:48:18.092Z,63.80
2023-01-04T06:53:17.514Z,50.00
2023-01-04T06:58:16.430Z,112.22
2023-01-04T07:03:16.794Z,69.18
2023-01-04T07:08:16.725Z,62.75
2023-01-04T07:13:15.655Z,70.07
2023-01-04T07:18:14.385Z,60.22
2023-01-04T07:23:17.860Z,57.50
2023-01-04T07:33:40.860Z,71.07
2023-01-04T07:38:45.029Z,66.38
2023-01-04T07:43:43.816Z,63.50
2023-01-04T07:48:42.611Z,34.90
2023-01-04T07:53:43.372Z,34.60
2023-01-04T07:58:42.331Z,34.83
2023-01-04T08:03:42.170Z,44.63
2023-01-04T08:08:42.711Z,88.10
2023-01-04T08:13:41.962Z,93.60
2023-01-04T08:18:40.978Z,92.82
2023-01-04T08:23:39.881Z,99.05
2023-01-04T08:28:40.265Z,92.57
2023-01-04T08:33:40.296Z,92.80
2023-01-04T08:43:59.455Z,72.75
2023-01-04T08:48:58.273Z,66.75
2023-01-04T08:53:57.057Z,59.30
2023-01-04T08:58:55.985Z,55.38
2023-01-04T09:03:58.009Z,63.20
2023-01-04T09:08:57.546Z,66.40
2023-01-04T09:14:02.631Z,59.45
2023-01-04T09:19:08.313Z,39.15
2023-01-04T09:24:07.369Z,39.20
2023-01-04T09:29:06.845Z,30.98
2023-01-04T09:34:16.554Z,35.05
2023-01-04T09:39:22.463Z,34.85
2023-01-04T09:45:03.103Z,35.35
2023-01-04T09:49:55.777Z,36.00
2023-01-04T09:55:02.814Z,40.00
2023-01-04T10:00:22.664Z,36.83
2023-01-04T10:05:26.389Z,31.70
2023-01-04T10:10:43.658Z,30.35
2023-01-04T10:15:50.852Z,28.15
2023-01-04T10:21:34.087Z,36.45
2023-01-04T10:31:42.271Z,32.88
2023-01-04T10:36:43.397Z,34.00
2023-01-04T10:41:50.528Z,33.45
2023-01-04T10:47:09.766Z,34.70
2023-01-04T10:52:17.680Z,35.47
2023-01-04T10:57:22.511Z,36.55
2023-01-04T11:02:28.446Z,33.17
2023-01-04T11:07:34.845Z,34.90
2023-01-04T11:12:33.941Z,34.85
2023-01-04T11:17:34.251Z,32.42
2023-01-04T11:22:41.225Z,32.42
2023-01-04T11:27:47.625Z,29.75
2023-01-04T11:32:54.635Z,34.60
2023-01-04T11:38:14.658Z,50.25
2023-01-04T11:43:19.731Z,46.97
2023-01-04T11:48:18.922Z,45.47
2023-01-04T11:53:28.519Z,41.47
2023-01-04T11:58:28.158Z,42.35
2023-01-04T12:03:30.931Z,37.80
2023-01-04T12:08:34.494Z,38.72
2023-01-04T12:13:34.996Z,41.33
2023-01-04T12:18:38.778Z,36.40
2023-01-04T12:23:39.007Z,35.40
2023-01-04T12:28:40.536Z,40.17
2023-01-04T12:33:40.675Z,32.35
2023-01-04T12:39:04.257Z,28.55
2023-01-04T12:49:40.573Z,28.08
2023-01-04T12:54:49.048Z,31.25
2023-01-04T12:59:56.271Z,28.42
2023-01-04T13:05:25.811Z,24.15
2023-01-04T13:10:30.246Z,24.77
2023-01-04T13:15:47.654Z,27.35
2023-01-04T13:20:47.278Z,21.35
2023-01-04T13:25:47.779Z,25.60
2023-01-04T13:30:48.028Z,24.05
2023-01-04T13:35:59.049Z,20.17
2023-01-04T13:40:59.259Z,19.50
2023-01-04T13:46:11.694Z,18.65
2023-01-04T13:51:17.152Z,23.15
2023-01-04T13:56:21.506Z,15.70
2023-01-04T14:01:23.954Z,17.75
2023-01-04T14:06:27.899Z,15.27
2023-01-04T14:11:48.646Z,17.65
2023-01-04T14:16:47.804Z,15.30
2023-01-04T14:21:47.085Z,15.57
2023-01-04T14:26:47.624Z,15.13
2023-01-04T14:31:46.872Z,16.70
2023-01-04T14:36:45.699Z,14.68
2023-01-04T14:41:52.749Z,15.32
2023-01-04T14:46:55.024Z,15.77
2023-01-04T14:51:55.355Z,17.17
2023-01-04T14:56:55.367Z,17.67
2023-01-04T15:01:56.740Z,21.48
2023-01-04T15:06:57.590Z,19.38
2023-01-04T15:11:56.813Z,18.67
2023-01-04T15:16:57.090Z,17.48
2023-01-04T15:21:55.965Z,18.30
2023-01-04T15:26:54.855Z,17.20
2023-01-04T15:31:53.686Z,19.42
2023-01-04T15:36:53.953Z,23.42
2023-01-04T15:42:10.383Z,21.52
2023-01-04T15:47:09.297Z,21.33
2023-01-04T15:52:12.551Z,22.58
2023-01-04T15:57:11.386Z,19.13
2023-01-04T16:02:12.662Z,20.77
2023-01-04T16:07:13.207Z,17.88
2023-01-04T16:12:29.183Z,24.52
2023-01-04T16:17:28.045Z,24.35
2023-01-04T16:22:28.324Z,27.50
2023-01-04T16:27:33.153Z,26.30
2023-01-04T16:32:33.988Z,26.33
2023-01-04T16:37:34.232Z,29.77
2023-01-04T16:42:33.185Z,28.02
2023-01-04T16:47:39.699Z,31.33
2023-01-04T16:52:40.344Z,27.55
2023-01-04T16:57:39.322Z,26.33
2023-01-04T17:02:38.482Z,26.45
2023-01-04T17:07:37.331Z,50.38
2023-01-04T17:12:52.774Z,142.10
2023-01-04T17:17:51.643Z,94.40
2023-01-04T17:22:53.791Z,62.05
2023-01-04T17:27:54.151Z,47.97
2023-01-04T17:32:54.487Z,39.85
2023-01-04T17:37:53.279Z,33.13
2023-01-04T17:42:53.672Z,32.67
2023-01-04T17:47:53.258Z,33.45
2023-01-04T17:52:52.349Z,30.42
2023-01-04T17:57:51.292Z,31.27
2023-01-04T18:02:51.827Z,30.90
2023-01-04T18:07:50.785Z,28.75
2023-01-04T18:12:49.539Z,32.97
2023-01-04T18:17:48.309Z,37.45
2023-01-04T18:22:48.471Z,38.78
2023-01-04T18:27:47.245Z,44.63
2023-01-04T18:32:46.164Z,48.53
2023-01-04T18:37:46.592Z,49.85
2023-01-04T18:42:50.434Z,67.90
2023-01-04T18:47:49.353Z,60.72
2023-01-04T18:52:48.179Z,57.22
2023-01-04T18:57:47.035Z,97.65
2023-01-04T19:02:47.303Z,100.68
2023-01-04T19:07:46.350Z,90.70
2023-01-04T19:12:45.130Z,127.03
2023-01-04T19:17:43.903Z,133.38
2023-01-04T19:22:44.086Z,120.15
2023-01-04T19:27:42.889Z,139.35
2023-01-04T19:32:41.714Z,209.85
2023-01-04T19:37:40.608Z,128.35
2023-01-04T19:42:41.675Z,102.43
2023-01-04T19:47:40.414Z,94.68
2023-01-04T19:52:39.572Z,110.35
2023-01-04T19:57:38.447Z,100.25
2023-01-04T20:02:38.883Z,108.63
2023-01-04T20:07:37.906Z,119.75
2023-01-04T20:12:36.690Z,87.93
2023-01-04T20:17:38.653Z,101.88
2023-01-04T20:22:38.096Z,110.15
2023-01-04T20:27:40.347Z,88.22
2023-01-04T20:32:41.348Z,77.75
2023-01-04T20:37:43.622Z,79.00
2023-01-04T20:43:01.857Z,70.18
2023-01-04T20:48:02.779Z,65.43
2023-01-04T20:53:08.003Z,53.03
2023-01-04T20:58:11.771Z,57.55
2023-01-04T21:03:16.291Z,49.58
2023-01-04T21:08:21.996Z,50.05
2023-01-04T21:13:23.875Z,51.53
2023-01-04T21:18:28.075Z,45.67
2023-01-04T21:23:34.369Z,33.83
2023-01-04T21:28:34.111Z,30.98
2023-01-04T21:33:34.312Z,37.05
2023-01-04T21:38:33.111Z,35.40
2023-01-04T21:43:31.860Z,33.33
2023-01-04T21:48:30.670Z,35.67
2023-01-04T21:53:31.189Z,29.77
2023-01-04T21:58:30.432Z,32.80
2023-01-04T22:03:29.301Z,31.75
2023-01-04T22:08:28.111Z,25.20
2023-01-04T22:13:28.750Z,21.77
2023-01-04T22:18:27.527Z,22.23
2023-01-04T22:23:26.353Z,21.52
2023-01-04T22:28:25.592Z,18.88
2023-01-04T22:33:25.895Z,16.73
2023-01-04T22:38:24.616Z,22.05
2023-01-04T22:43:23.510Z,19.63
2023-01-04T22:48:22.309Z,24.42
2023-01-04T22:53:22.613Z,22.27
2023-01-04T22:58:21.421Z,26.80
2023-01-04T23:03:20.302Z,28.63
2023-01-04T23:08:19.170Z,29.85
2023-01-04T23:13:19.553Z,34.60
2023-01-04T23:18:18.381Z,42.63
2023-01-04T23:23:17.125Z,52.00
2023-01-04T23:28:18.283Z,41.63
2023-01-04T23:33:18.677Z,46.00
2023-01-04T23:38:17.428Z,42.53
2023-01-04T23:43:16.257Z,47.95
2023-01-04T23:48:16.312Z,42.22
2023-01-04T23:53:16.540Z,41.25
2023-01-04T23:58:15.374Z,42.65
